Time;durP1;ratioP1;P1;durP2;ratioP2;P2;SDS_P1;SDS_P2;PMS_P1;PMS_P2;Temp;Humidity;BMP_temperature;BMP_pressure;BME280_temperature;BME280_humidity;BME280_pressure;Samples;Min_cycle;Max_cycle;Signal;HPM_P1;HPM_P2
2022/05/21 00:01:09;;;;;;;;;46.33;35.00;;;;;16.53;85.31;99443.38;6280534;20;3622093;-55
2022/05/21 00:03:40;;;;;;;;;41.00;35.33;;;;;16.57;85.35;99442.13;6313923;20;3596210;-55
2022/05/21 00:06:09;;;;;;;;;45.33;36.00;;;;;16.80;85.21;99443.63;6285898;20;3610665;-55
2022/05/21 00:08:38;;;;;;;;;43.33;36.00;;;;;16.68;84.87;99450.97;6280332;20;3617923;-54
2022/05/21 00:11:07;;;;;;;;;46.00;36.67;;;;;17.19;83.35;99454.50;6313705;20;3622135;-55
2022/05/21 00:13:36;;;;;;;;;49.00;39.67;;;;;17.26;82.59;99461.06;6285140;20;3579381;-56
2022/05/21 00:16:06;;;;;;;;;46.33;38.67;;;;;17.11;83.17;99463.38;6280792;20;3596167;-54
2022/05/21 00:18:35;;;;;;;;;47.67;38.00;;;;;16.78;86.00;99459.16;6315255;20;3613767;-56
2022/05/21 00:21:04;;;;;;;;;40.67;36.00;;;;;16.54;87.34;99448.66;6283255;20;3608579;-52
2022/05/21 00:23:35;;;;;;;;;44.00;36.67;;;;;16.75;85.94;99458.56;6283257;20;3616922;-54
2022/05/21 00:26:14;;;;;;;;;41.33;35.00;;;;;16.73;85.33;99452.44;6280834;20;3612122;-55
2022/05/21 00:28:46;;;;;;;;;38.00;33.00;;;;;16.25;88.06;99451.28;6312903;20;3604484;-57
2022/05/21 00:31:18;;;;;;;;;40.00;33.00;;;;;16.39;87.98;99450.91;6278847;20;3612719;-55
2022/05/21 00:33:48;;;;;;;;;38.67;33.00;;;;;16.61;87.12;99443.53;6313042;20;3585636;-55
2022/05/21 00:36:18;;;;;;;;;37.67;34.00;;;;;16.35;87.45;99448.59;6283236;20;3595015;-57
2022/05/21 00:38:47;;;;;;;;;36.00;32.00;;;;;16.33;87.92;99446.03;6279622;20;2839863;-53
2022/05/21 00:41:18;;;;;;;;;39.33;33.00;;;;;16.54;86.46;99434.28;6282960;20;3604491;-52
2022/05/21 00:43:53;;;;;;;;;9.00;8.50;;;;;16.61;87.00;99438.13;6282232;20;2754431;-50
2022/05/21 00:46:27;;;;;;;;;37.00;32.00;;;;;16.95;86.39;99443.19;6279897;20;2859666;-52
2022/05/21 00:49:23;;;;;;;;;37.00;32.00;;;;;16.81;86.27;99453.47;6314149;20;3587774;-51
2022/05/21 00:52:19;;;;;;;;;35.00;32.00;;;;;16.74;87.13;99444.13;6280401;20;3611739;-50
2022/05/21 00:54:56;;;;;;;;;35.33;33.00;;;;;16.76;88.01;99444.84;6280190;20;3602422;-51
2022/05/21 00:59:47;;;;;;;;;37.00;31.33;;;;;16.76;87.74;99438.59;6279258;20;3603582;-50
2022/05/21 01:00:40;;;;;;;;;34.00;31.33;;;;;16.59;89.01;99445.56;6278170;20;3599198;-49
2022/05/21 01:03:11;;;;;;;;;32.50;31.00;;;;;16.77;88.47;99449.34;6281441;20;2740870;-50
2022/05/21 01:05:40;;;;;;;;;37.33;31.67;;;;;16.85;88.55;99435.94;6313085;20;3608669;-49
2022/05/21 01:08:09;;;;;;;;;34.67;32.00;;;;;17.02;86.89;99436.22;6277366;20;3600363;-47
2022/05/21 01:10:49;;;;;;;;;36.33;32.67;;;;;17.11;87.02;99435.34;6278813;20;2851462;-50
2022/05/21 01:13:24;;;;;;;;;32.33;30.67;;;;;16.83;87.25;99435.22;6314332;20;3607540;-49
2022/05/21 01:15:55;;;;;;;;;37.00;32.33;;;;;16.88;86.43;99446.50;6277607;20;3616910;-47
2022/05/21 01:18:24;;;;;;;;;37.67;33.00;;;;;17.13;85.18;99457.78;6312231;20;3607559;-48
2022/05/21 01:20:58;;;;;;;;;36.67;31.67;;;;;16.96;86.09;99461.22;6279747;20;3596110;-49
2022/05/21 01:23:28;;;;;;;;;32.00;30.00;;;;;16.96;85.92;99464.78;6282291;20;3588824;-48
2022/05/21 01:26:00;;;;;;;;;33.67;32.00;;;;;17.12;85.67;99475.06;6279706;20;3613740;-47
2022/05/21 01:28:33;;;;;;;;;32.67;31.33;;;;;17.08;86.40;99462.78;6278303;20;3594007;-49
2022/05/21 01:31:03;;;;;;;;;34.67;30.67;;;;;17.29;83.89;99476.22;6275199;20;3610788;-47
2022/05/21 01:33:40;;;;;;;;;29.67;27.67;;;;;16.91;84.55;99472.47;6282145;20;3587723;-47
2022/05/21 01:36:10;;;;;;;;;30.33;29.67;;;;;17.05;84.33;99471.19;6281262;20;3596050;-47
2022/05/21 01:38:39;;;;;;;;;31.67;31.00;;;;;16.70;87.30;99479.81;6282372;20;3599398;-47
2022/05/21 01:41:09;;;;;;;;;31.67;30.00;;;;;16.38;88.18;99476.28;6285675;20;3602327;-48
2022/05/21 01:46:26;;;;;;;;;37.00;32.33;;;;;16.31;89.36;99468.84;6288558;20;3585665;-58
2022/05/21 01:48:55;;;;;;;;;29.33;29.33;;;;;16.38;88.75;99459.19;6284921;20;3592936;-59
2022/05/21 01:51:24;;;;;;;;;33.00;30.67;;;;;16.53;86.93;99451.50;6285239;20;3592933;-58
2022/05/21 01:53:53;;;;;;;;;32.33;29.67;;;;;16.76;87.27;99453.00;6281479;20;2856635;-58
2022/05/21 01:56:22;;;;;;;;;34.67;30.00;;;;;16.63;88.43;99455.09;6316692;20;3602708;-58
2022/05/21 01:58:51;;;;;;;;;31.00;30.00;;;;;16.51;89.54;99458.91;6287154;20;3603441;-58
2022/05/21 02:01:20;;;;;;;;;31.33;29.33;;;;;16.49;89.54;99467.19;6285269;20;2850293;-58
2022/05/21 02:03:49;;;;;;;;;32.00;29.00;;;;;16.46;89.83;99452.06;6317584;20;3590197;-58
2022/05/21 02:06:17;;;;;;;;;35.00;32.00;;;;;16.51;89.03;99453.50;6285400;20;3594004;-58
2022/05/21 02:08:49;;;;;;;;;34.50;30.75;;;;;16.70;87.89;99450.00;6308748;20;3596206;-59
2022/05/21 02:11:17;;;;;;;;;35.00;32.00;;;;;16.57;90.07;99451.09;6286084;20;3611709;-59
2022/05/21 02:13:46;;;;;;;;;35.33;30.00;;;;;16.95;86.98;99451.34;6285827;20;3602434;-58
2022/05/21 02:16:15;;;;;;;;;33.33;30.00;;;;;16.95;86.62;99457.63;6286226;20;3598191;-58
2022/05/21 02:18:44;;;;;;;;;34.00;32.00;;;;;16.88;87.41;99473.59;6287506;20;3598204;-58
2022/05/21 02:21:13;;;;;;;;;35.33;31.67;;;;;16.77;88.30;99489.09;6279871;20;3600275;-58
2022/05/21 02:23:42;;;;;;;;;35.00;32.00;;;;;16.97;88.19;99499.03;6316545;20;3624178;-57
2022/05/21 02:26:17;;;;;;;;;35.00;32.00;;;;;17.03;87.79;99508.44;6281838;20;2857717;-58
2022/05/21 02:28:45;;;;;;;;;37.33;33.00;;;;;17.25;86.30;99529.91;6317043;20;3584629;-58
2022/05/21 02:31:14;;;;;;;;;35.33;32.00;;;;;17.41;85.37;99559.22;6285702;20;3615177;-58
2022/05/21 02:33:44;;;;;;;;;39.33;34.00;;;;;17.50;84.62;99576.50;6281277;20;2867107;-59
2022/05/21 02:36:13;;;;;;;;;34.67;32.67;;;;;17.42;85.46;99562.78;6315171;20;3593150;-58
2022/05/21 02:41:31;;;;;;;;;32.67;30.67;;;;;17.85;84.32;99586.84;6280319;20;2856614;-58
2022/05/21 02:44:00;;;;;;;;;33.33;31.33;;;;;18.08;83.52;99575.66;6314754;20;3582520;-58
2022/05/21 02:46:29;;;;;;;;;32.67;29.33;;;;;17.82;84.89;99567.25;6283254;20;3592942;-58
2022/05/21 02:48:57;;;;;;;;;30.33;27.67;;;;;17.97;84.74;99590.25;6284931;20;3582514;-58
2022/05/21 02:51:26;;;;;;;;;30.67;30.67;;;;;18.07;84.34;99580.25;6282401;20;3583618;-57
2022/05/21 02:53:55;;;;;;;;;33.00;31.67;;;;;17.94;86.06;99585.97;6281328;20;2867040;-57
2022/05/21 02:56:24;;;;;;;;;33.67;30.67;;;;;17.93;87.41;99588.81;6317447;20;3601275;-57
2022/05/21 02:58:53;;;;;;;;;36.00;30.67;;;;;18.05;86.39;99589.53;6284031;20;3602684;-54
2022/05/21 03:01:21;;;;;;;;;35.67;33.67;;;;;18.03;86.78;99586.97;6289197;20;3597095;-55
2022/05/21 03:03:53;;;;;;;;;33.63;30.75;;;;;18.04;86.23;99594.13;6306675;20;3600248;-57
2022/05/21 03:06:22;;;;;;;;;31.67;30.67;;;;;18.06;86.71;99599.41;6282797;20;3606475;-57
2022/05/21 03:11:38;;;;;;;;;34.00;32.00;;;;;18.12;87.24;99596.13;6317260;20;3609985;-57
2022/05/21 03:14:09;;;;;;;;;34.67;31.00;;;;;18.16;86.54;99601.09;6289767;20;3606489;-56
2022/05/21 03:16:38;;;;;;;;;33.67;30.33;;;;;18.06;86.78;99599.41;6284000;20;3601380;-51
2022/05/21 03:19:07;;;;;;;;;33.00;30.67;;;;;18.22;85.83;99602.41;6284774;20;3600274;-57
2022/05/21 03:21:35;;;;;;;;;33.00;31.00;;;;;18.27;86.00;99607.38;6286225;20;3595052;-45
2022/05/21 03:24:05;;;;;;;;;36.67;32.67;;;;;18.40;85.47;99607.91;6285032;20;3603533;-46
2022/05/21 03:26:35;;;;;;;;;38.67;35.67;;;;;18.06;87.48;99611.16;6283696;20;3579513;-50
2022/05/21 03:29:04;;;;;;;;;37.67;32.33;;;;;18.34;85.85;99616.69;6282633;20;3589854;-45
2022/05/21 03:31:32;;;;;;;;;33.67;31.00;;;;;18.51;85.20;99607.78;6284157;20;3598258;-48
2022/05/21 03:34:01;;;;;;;;;36.00;32.67;;;;;18.91;83.12;99603.94;6283728;20;3600327;-47
2022/05/21 03:36:30;;;;;;;;;24.33;23.67;;;;;19.16;81.96;99594.19;6286198;20;3591925;-49
2022/05/21 03:38:59;;;;;;;;;26.00;24.67;;;;;19.39;80.81;99604.69;6282930;20;3604422;-51
2022/05/21 03:41:28;;;;;;;;;21.00;21.00;;;;;19.55;79.82;99604.00;6285760;20;3585678;-47
2022/05/21 03:43:57;;;;;;;;;18.67;18.00;;;;;19.59;80.43;99589.94;6286337;20;3567996;-46
2022/05/21 03:46:27;;;;;;;;;28.00;23.00;;;;;19.66;79.63;99595.59;6275638;20;3596080;-50
2022/05/21 03:48:55;;;;;;;;;39.00;33.67;;;;;19.77;79.24;99589.09;6283608;20;3603361;-51
2022/05/21 03:51:24;;;;;;;;;24.00;24.00;;;;;19.84;78.90;99592.91;6281127;20;3591020;-49
2022/05/21 03:53:53;;;;;;;;;19.50;19.50;;;;;19.86;78.67;99589.03;6282261;20;2848152;-49
2022/05/21 03:56:21;;;;;;;;;19.00;16.67;;;;;19.92;78.03;99584.81;6280699;20;3566913;-46
2022/05/21 03:58:50;;;;;;;;;18.50;17.00;;;;;20.02;77.46;99569.22;6279572;20;2825327;-46
2022/05/21 04:01:18;;;;;;;;;32.33;29.33;;;;;20.10;77.63;99563.00;6285220;20;3592939;-47
2022/05/21 04:03:50;;;;;;;;;14.67;14.67;;;;;20.11;76.75;99561.97;6280227;20;3537866;-51
2022/05/21 04:06:18;;;;;;;;;14.00;14.00;;;;;20.13;76.88;99565.41;6279991;20;2808698;-51
2022/05/21 04:08:49;;;;;;;;;13.67;13.67;;;;;20.14;77.15;99562.53;6278698;20;3524489;-46
2022/05/21 04:11:18;;;;;;;;;14.67;14.00;;;;;20.05;77.01;99573.50;6279657;20;3533677;-56
2022/05/21 04:13:46;;;;;;;;;16.00;14.00;;;;;20.10;77.58;99573.88;6277881;20;2491979;-52
2022/05/21 04:16:14;;;;;;;;;13.00;13.00;;;;;20.10;77.54;99568.44;6281448;20;3535805;-53
2022/05/21 04:18:43;;;;;;;;;14.00;13.00;;;;;20.23;77.80;99562.56;6280224;20;3523339;-46
2022/05/21 04:21:11;;;;;;;;;14.67;14.00;;;;;20.23;77.72;99555.25;6313531;20;3534652;-55
2022/05/21 04:23:40;;;;;;;;;20.00;18.00;;;;;20.29;78.14;99532.78;6312455;20;3572194;-58
2022/05/21 04:26:09;;;;;;;;;14.00;12.67;;;;;20.15;78.40;99533.38;6279536;20;3527424;-58
2022/05/21 04:28:37;;;;;;;;;25.00;20.00;;;;;20.28;78.59;99530.22;6311937;20;3571092;-49
2022/05/21 04:31:06;;;;;;;;;28.67;26.00;;;;;20.26;79.02;99515.91;6279207;20;3602428;-48
2022/05/21 04:33:35;;;;;;;;;27.67;25.00;;;;;20.36;79.04;99495.69;6284780;20;3596094;-52
2022/05/21 04:36:19;;;;;;;;;18.67;15.33;;;;;20.41;78.26;99470.66;6281624;20;3551267;-50
2022/05/21 04:38:51;;;;;;;;;14.00;11.33;;;;;20.35;79.03;99439.44;6279672;20;3519125;-54
2022/05/21 04:41:22;;;;;;;;;8.00;8.00;;;;;20.29;79.65;99436.50;6310100;20;3457544;-52
2022/05/21 04:43:51;;;;;;;;;20.00;16.00;;;;;20.12;80.38;99454.66;6312460;20;2829417;-49
2022/05/21 04:46:21;;;;;;;;;16.50;13.50;;;;;20.23;80.53;99462.53;6281880;20;2491974;-47
2022/05/21 04:48:49;;;;;;;;;16.00;15.00;;;;;20.24;80.27;99466.13;6282327;20;2483599;-48
2022/05/21 04:51:37;;;;;;;;;14.00;14.00;;;;;20.23;80.48;99478.91;6281501;20;2812778;-47
2022/05/21 04:54:06;;;;;;;;;19.50;17.50;;;;;20.28;80.46;99501.09;6280744;20;2832571;-45
2022/05/21 04:56:35;;;;;;;;;13.00;13.00;;;;;20.21;81.62;99491.84;6277414;20;3526323;-57
2022/05/21 04:59:12;;;;;;;;;14.00;13.00;;;;;20.23;81.49;99489.81;6310472;20;3529907;-58
2022/05/21 05:01:41;;;;;;;;;14.00;13.00;;;;;20.43;80.47;99489.56;6314498;20;2498274;-48
2022/05/21 05:04:11;;;;;;;;;10.00;10.00;;;;;20.41;80.79;99489.75;6279850;20;3514840;-55
2022/05/21 05:06:40;;;;;;;;;12.00;10.67;;;;;20.37;81.49;99486.47;6278955;20;2792031;-58
2022/05/21 05:09:10;;;;;;;;;10.67;10.67;;;;;20.38;81.11;99493.66;6317345;20;2791932;-57
2022/05/21 05:11:39;;;;;;;;;15.00;12.00;;;;;20.55;80.07;99482.84;6310278;20;3532546;-58
2022/05/21 05:14:07;;;;;;;;;10.67;10.67;;;;;20.68;80.52;99485.13;6311561;20;3503374;-58
2022/05/21 05:16:36;;;;;;;;;10.67;9.67;;;;;20.62;81.89;99475.72;6322306;20;2778525;-58
2022/05/21 05:19:05;;;;;;;;;11.33;10.00;;;;;20.65;80.35;99478.13;6312681;20;2791906;-58
2022/05/21 05:21:35;;;;;;;;;10.00;10.00;;;;;20.55;81.19;99493.75;6335110;20;2787817;-56
2022/05/21 05:24:04;;;;;;;;;11.00;9.67;;;;;20.73;81.27;99510.03;6291535;20;2783605;-58
2022/05/21 05:26:33;;;;;;;;;9.67;9.67;;;;;20.88;80.35;99532.09;6315313;20;2766953;-57
2022/05/21 05:29:02;;;;;;;;;11.00;9.33;;;;;20.91;79.60;99540.81;6320391;20;2781555;-57
2022/05/21 05:31:29;;;;;;;;;9.00;9.00;;;;;20.98;79.86;99549.19;6322767;20;2759032;-58
2022/05/21 05:33:57;;;;;;;;;11.50;8.00;;;;;21.23;78.26;99548.25;6296835;20;2767123;-57
2022/05/21 05:36:26;;;;;;;;;9.00;8.00;;;;;21.24;79.06;99544.50;6292537;20;2744032;-53
2022/05/21 05:38:59;;;;;;;;;8.40;8.00;;;;;21.23;78.19;99534.59;6343114;20;2746164;-52
2022/05/21 05:41:29;;;;;;;;;9.00;7.00;;;;;21.26;77.18;99531.53;6286529;20;2742528;-50
2022/05/21 05:43:58;;;;;;;;;10.00;7.00;;;;;21.42;76.49;99546.28;6324602;20;2770102;-54
2022/05/21 05:46:26;;;;;;;;;6.67;6.00;;;;;21.45;76.56;99543.22;6317258;20;2735711;-53
2022/05/21 05:48:56;;;;;;;;;9.00;8.00;;;;;21.50;75.79;99540.84;6342022;20;2750343;-50
2022/05/21 05:51:25;;;;;;;;;8.67;8.33;;;;;21.61;76.57;99532.31;6288281;20;2744010;-53
2022/05/21 05:53:53;;;;;;;;;9.00;8.00;;;;;21.58;76.70;99535.38;6315915;20;2757547;-53
2022/05/21 05:56:22;;;;;;;;;9.67;7.33;;;;;21.77;75.19;99542.38;6318211;20;2747204;-54
2022/05/21 06:01:41;;;;;;;;;8.20;8.20;;;;;21.72;75.84;99538.47;6312917;20;2750327;-54
2022/05/21 06:04:10;;;;;;;;;5.00;5.00;;;;;21.66;75.63;99529.91;6293388;20;2735690;-54
2022/05/21 06:06:38;;;;;;;;;7.00;5.67;;;;;21.73;74.51;99534.72;6318718;20;2738804;-51
2022/05/21 06:09:08;;;;;;;;;7.40;5.60;;;;;21.82;73.91;99529.06;6341397;20;2731516;-51
2022/05/21 06:11:38;;;;;;;;;7.00;5.00;;;;;21.96;72.68;99523.94;6339655;20;2748321;-50
2022/05/21 06:14:09;;;;;;;;;5.00;3.60;;;;;21.90;71.25;99522.75;6310501;20;2750341;-53
2022/05/21 06:16:38;;;;;;;;;7.20;5.00;;;;;22.02;70.92;99518.66;6309014;20;2745042;-56
2022/05/21 06:19:08;;;;;;;;;5.60;5.00;;;;;22.09;70.15;99514.22;6343145;20;2743036;-58
2022/05/21 06:21:37;;;;;;;;;5.40;5.00;;;;;22.23;69.52;99511.81;6341551;20;2747157;-59
2022/05/21 06:24:07;;;;;;;;;6.60;5.00;;;;;22.12;69.30;99515.75;6312480;20;2746112;-58
2022/05/21 06:26:35;;;;;;;;;10.00;7.33;;;;;22.27;68.79;99513.16;6283509;20;2748279;-58
2022/05/21 06:29:05;;;;;;;;;4.40;4.40;;;;;22.08;69.63;99515.22;6338419;20;2747156;-59
2022/05/21 06:31:35;;;;;;;;;5.20;4.00;;;;;22.13;70.94;99510.09;6309500;20;2754418;-59
2022/05/21 06:34:04;;;;;;;;;5.00;3.00;;;;;22.06;70.86;99503.59;6288568;20;2756576;-59
2022/05/21 06:36:33;;;;;;;;;5.40;4.40;;;;;21.97;70.83;99493.72;6341638;20;2732555;-58
2022/05/21 06:39:04;;;;;;;;;5.60;4.40;;;;;21.93;71.43;99486.88;6341732;20;2750251;-58
2022/05/21 06:41:35;;;;;;;;;4.86;3.43;;;;;22.02;71.32;99487.72;6327425;20;3457710;-58
2022/05/21 06:44:05;;;;;;;;;7.00;4.80;;;;;21.69;71.03;99501.41;6339793;20;2749203;-58
2022/05/21 06:46:34;;;;;;;;;7.00;4.20;;;;;21.67;71.43;99507.06;6309839;20;2748164;-58
2022/05/21 06:49:04;;;;;;;;;4.40;4.40;;;;;21.73;71.79;99516.44;6341610;20;2752804;-55
2022/05/21 06:51:32;;;;;;;;;5.33;3.33;;;;;21.69;72.29;99528.72;6288509;20;2740904;-55
2022/05/21 06:54:01;;;;;;;;;4.33;4.33;;;;;21.75;72.25;99529.91;6318645;20;2744009;-59
2022/05/21 06:56:29;;;;;;;;;5.00;5.00;;;;;22.01;71.80;99547.03;6320204;20;2750264;-59
2022/05/21 06:58:59;;;;;;;;;5.20;5.20;;;;;22.11;71.57;99539.47;6339652;20;2750423;-59
2022/05/21 07:01:28;;;;;;;;;3.60;3.60;;;;;21.88;70.70;99533.00;6318226;20;2751386;-57
2022/05/21 07:03:57;;;;;;;;;4.33;4.33;;;;;21.89;72.06;99543.78;6323230;20;2749278;-58
2022/05/21 07:09:14;;;;;;;;;5.60;4.40;;;;;21.61;74.18;99559.63;6338459;20;2752423;-58
2022/05/21 07:11:44;;;;;;;;;5.80;4.40;;;;;21.28;74.62;99555.97;6309485;20;2749633;-54
2022/05/21 07:14:14;;;;;;;;;6.80;5.00;;;;;20.94;78.41;99542.38;6309809;20;2743985;-58
2022/05/21 07:16:44;;;;;;;;;8.20;5.20;;;;;20.74;79.87;99531.69;6340135;20;2745036;-52
2022/05/21 07:19:14;;;;;;;;;7.00;5.60;;;;;20.57;82.59;99535.38;6310427;20;2745201;-52
2022/05/21 07:21:42;;;;;;;;;7.00;6.00;;;;;20.51;84.87;99538.69;6319167;20;2735676;-52
2022/05/21 07:24:12;;;;;;;;;6.00;6.00;;;;;20.47;85.93;99540.06;6342136;20;2732553;-50
2022/05/21 07:26:42;;;;;;;;;7.00;6.00;;;;;20.29;87.95;99531.94;6316295;20;2743098;-47
2022/05/21 07:29:13;;;;;;;;;5.20;5.00;;;;;20.51;86.33;99546.88;6337403;20;2740985;-46
2022/05/21 07:31:42;;;;;;;;;8.80;8.20;;;;;20.70;87.19;99546.69;6340829;20;2753395;-50
2022/05/21 07:34:12;;;;;;;;;8.80;6.60;;;;;20.83;86.41;99536.19;6310633;20;2756618;-51
2022/05/21 07:36:40;;;;;;;;;6.00;6.00;;;;;20.91;85.07;99537.25;6291613;20;2734674;-48
2022/05/21 07:39:10;;;;;;;;;8.40;7.00;;;;;21.39;85.68;99541.16;6340451;20;2733579;-50
2022/05/21 07:41:38;;;;;;;;;6.00;6.00;;;;;21.72;82.88;99527.53;6317101;20;2746205;-48
2022/05/21 07:44:08;;;;;;;;;7.60;7.60;;;;;22.04;80.38;99529.44;6342539;20;2748195;-45
2022/05/21 07:46:37;;;;;;;;;9.40;8.20;;;;;22.29;79.96;99528.38;6308254;20;2762969;-47
2022/05/21 07:49:06;;;;;;;;;7.00;7.00;;;;;22.69;77.57;99522.97;6283604;20;2734621;-48
2022/05/21 07:51:35;;;;;;;;;8.00;8.00;;;;;23.52;74.93;99519.66;6340764;20;2751898;-50
2022/05/21 07:54:05;;;;;;;;;7.00;7.00;;;;;22.78;74.14;99527.41;6308521;20;2736700;-48
2022/05/21 07:56:34;;;;;;;;;9.00;9.00;;;;;22.72;76.14;99523.50;6283341;20;2753378;-47
2022/05/21 07:59:03;;;;;;;;;6.00;5.80;;;;;23.25;73.35;99520.16;6340022;20;2736725;-51
2022/05/21 08:01:32;;;;;;;;;11.00;9.00;;;;;23.40;73.79;99512.88;6322256;20;2762797;-51
2022/05/21 08:04:01;;;;;;;;;9.00;7.80;;;;;24.08;70.09;99513.91;6341394;20;2745102;-49
2022/05/21 08:06:30;;;;;;;;;7.33;7.33;;;;;24.12;69.41;99509.78;6287518;20;2735885;-59
2022/05/21 08:09:00;;;;;;;;;8.60;7.40;;;;;24.49;68.30;99508.03;6337005;20;2757545;-59
2022/05/21 08:11:29;;;;;;;;;8.00;8.00;;;;;24.90;66.69;99518.53;6286840;20;2734662;-59
2022/05/21 08:13:57;;;;;;;;;8.00;8.00;;;;;24.56;66.62;99516.38;6318188;20;2731531;-58
2022/05/21 08:16:27;;;;;;;;;7.60;7.60;;;;;24.74;65.31;99523.16;6345134;20;2750305;-58
2022/05/21 08:18:57;;;;;;;;;8.80;8.80;;;;;25.14;64.29;99520.94;6309875;20;2751337;-60
2022/05/21 08:21:25;;;;;;;;;9.00;9.00;;;;;24.60;65.62;99534.16;6282844;20;2740880;-59
2022/05/21 08:26:56;;;;;;;;;9.67;9.67;;;;;25.36;62.53;99534.78;6323591;20;2769149;-59
2022/05/21 08:29:35;;;;;;;;;9.67;8.00;;;;;25.13;62.92;99535.72;6315872;20;2757536;-58
2022/05/21 08:32:05;;;;;;;;;8.40;8.40;;;;;25.31;61.96;99538.09;6343788;20;2747232;-53
2022/05/21 08:34:34;;;;;;;;;8.67;8.67;;;;;25.23;63.13;99545.63;6287561;20;2744112;-58
2022/05/21 08:37:03;;;;;;;;;9.00;9.00;;;;;24.89;63.62;99545.16;6317869;20;2749218;-58
2022/05/21 08:39:33;;;;;;;;;9.00;7.40;;;;;24.62;64.60;99538.44;6342857;20;2735806;-59
2022/05/21 08:42:14;;;;;;;;;6.33;6.33;;;;;24.56;63.93;99539.16;6295930;20;2737830;-59
2022/05/21 08:44:52;;;;;;;;;11.00;8.00;;;;;24.22;64.08;99542.41;6313761;20;3496086;-56
2022/05/21 08:47:37;;;;;;;;;8.33;8.33;;;;;24.26;65.92;99541.84;6321064;20;2754523;-59
2022/05/21 08:50:13;;;;;;;;;9.33;9.33;;;;;24.36;65.49;99546.25;6318904;20;2773161;-58
2022/05/21 08:52:57;;;;;;;;;7.67;7.00;;;;;24.35;64.95;99548.09;6318538;20;2737777;-59
2022/05/21 08:55:45;;;;;;;;;11.00;10.67;;;;;24.34;64.48;99554.66;6317489;20;2794727;-58
2022/05/21 08:58:40;;;;;;;;;9.67;8.67;;;;;24.18;65.13;99558.41;6314046;20;2761893;-57
2022/05/21 09:01:23;;;;;;;;;10.33;9.67;;;;;24.19;65.75;99551.84;6311184;20;2770095;-57
2022/05/21 09:03:56;;;;;;;;;11.67;11.00;;;;;23.72;67.02;99557.56;6320608;20;2791901;-57
2022/05/21 09:06:48;;;;;;;;;7.67;7.67;;;;;24.07;66.71;99564.34;6318924;20;2737787;-59
2022/05/21 09:09:43;;;;;;;;;10.00;9.00;;;;;23.78;67.05;99563.19;6317991;20;2773190;-58
2022/05/21 09:12:23;;;;;;;;;10.00;9.00;;;;;23.74;67.22;99556.34;6315026;20;2771121;-58
2022/05/21 09:15:00;;;;;;;;;12.00;11.00;;;;;24.05;67.04;99556.28;6319544;20;2796170;-59
2022/05/21 09:17:30;;;;;;;;;9.67;9.67;;;;;24.31;66.65;99566.84;6313188;20;2777456;-56
2022/05/21 09:20:05;;;;;;;;;10.00;10.00;;;;;23.96;67.65;99553.78;6318426;20;2787877;-58
2022/05/21 09:22:33;;;;;;;;;12.67;11.00;;;;;23.68;67.62;99551.59;6313476;20;3516247;-56
2022/05/21 09:25:26;;;;;;;;;10.00;10.00;;;;;23.58;68.09;99556.44;6315992;20;3516004;-60
2022/05/21 09:28:10;;;;;;;;;11.00;10.00;;;;;23.92;67.44;99552.47;6282235;20;3515918;-58
2022/05/21 09:30:56;;;;;;;;;11.40;9.60;;;;;24.96;63.59;99556.19;6337103;20;2778373;-58
2022/05/21 09:33:37;;;;;;;;;9.00;9.00;;;;;25.45;61.68;99565.72;6284169;20;3478515;-49
2022/05/21 09:36:06;;;;;;;;;10.67;8.67;;;;;25.93;60.77;99557.81;6322638;20;2771089;-48
2022/05/21 09:38:52;;;;;;;;;11.33;10.67;;;;;26.15;59.39;99539.38;6313576;20;3520077;-48
2022/05/21 09:41:36;;;;;;;;;10.00;8.67;;;;;25.75;58.42;99550.84;6290603;20;2764837;-49
2022/05/21 09:47:21;;;;;;;;;9.00;8.00;;;;;25.76;57.30;99551.69;6289840;20;2754439;-50
2022/05/21 09:50:10;;;;;;;;;9.00;9.00;;;;;25.75;56.58;99555.47;6317099;20;2748223;-50
2022/05/21 09:52:40;;;;;;;;;29.75;16.50;;;;;26.30;55.51;99548.38;6316854;20;3587802;-49
2022/05/21 09:55:30;;;;;;;;;11.33;9.00;;;;;26.46;55.84;99558.25;6314489;20;3479421;-48
2022/05/21 09:58:16;;;;;;;;;16.33;11.00;;;;;26.50;55.54;99565.91;6313157;20;3529415;-57
2022/05/21 10:00:57;;;;;;;;;15.00;11.00;;;;;27.22;52.76;99547.28;6311066;20;3503404;-59
2022/05/21 10:03:49;;;;;;;;;12.67;10.00;;;;;27.49;51.79;99558.41;6319593;20;3505562;-60
2022/05/21 10:06:31;;;;;;;;;17.67;9.33;;;;;27.38;50.62;99578.31;6316874;20;3535696;-59
2022/05/21 10:12:33;;;;;;;;;12.00;9.67;;;;;27.22;49.67;99571.25;6323540;20;2781644;-58
2022/05/21 10:15:13;;;;;;;;;16.33;11.00;;;;;27.17;50.76;99571.88;6317429;20;3532524;-57
2022/05/21 10:18:31;;;;;;;;;12.33;11.00;;;;;27.33;50.67;99560.50;6318631;20;2793989;-59
2022/05/21 10:21:20;;;;;;;;;12.67;11.00;;;;;27.56;49.20;99564.81;6318751;20;2491938;-58
2022/05/21 10:24:02;;;;;;;;;11.33;10.00;;;;;27.52;49.36;99572.66;6317990;20;2791954;-61
2022/05/21 10:26:55;;;;;;;;;11.33;10.00;;;;;27.43;48.33;99567.53;6324196;20;2794004;-61
2022/05/21 10:30:08;;;;;;;;;10.67;8.00;;;;;27.25;48.47;99562.56;6316032;20;2775620;-63
2022/05/21 10:33:14;;;;;;;;;10.67;9.67;;;;;27.01;47.90;99562.00;6318756;20;2790863;-63
2022/05/21 10:36:38;;;;;;;;;9.67;9.33;;;;;27.13;47.22;99554.88;6326082;20;2756524;-62
2022/05/21 10:39:18;;;;;;;;;9.00;7.00;;;;;27.60;46.77;99544.03;6318405;20;2756504;-61
2022/05/21 10:42:18;;;;;;;;;7.00;5.33;;;;;27.25;44.68;99546.03;6320423;20;2744086;-62
2022/05/21 10:45:17;;;;;;;;;8.33;6.00;;;;;26.44;44.62;99541.94;6317084;20;2756492;-59
2022/05/21 10:48:26;;;;;;;;;5.40;5.40;;;;;27.15;44.85;99546.41;6344587;20;2740928;-61
2022/05/21 10:51:29;;;;;;;;;7.67;7.67;;;;;26.85;46.59;99541.16;6290115;20;2746153;-61
2022/05/21 10:54:45;;;;;;;;;8.50;8.00;;;;;27.26;45.24;99548.59;6320581;20;2701316;-62
2022/05/21 10:57:58;;;;;;;;;10.00;7.00;;;;;27.36;45.01;99543.53;6319529;20;2769044;-62
2022/05/21 11:01:23;;;;;;;;;8.67;5.33;;;;;27.17;41.33;99547.06;6320667;20;2748176;-61
2022/05/21 11:04:53;;;;;;;;;6.00;4.60;;;;;26.86;37.35;99551.13;6342773;20;2748202;-62
2022/05/21 11:08:34;;;;;;;;;10.00;6.00;;;;;27.75;37.50;99552.09;6286856;20;2761759;-61
2022/05/21 11:11:32;;;;;;;;;5.00;5.00;;;;;27.46;40.88;99561.59;6313799;20;2742983;-62
2022/05/21 11:14:38;;;;;;;;;6.20;4.20;;;;;27.30;40.33;99538.84;6342178;20;2749178;-61
2022/05/21 11:18:17;;;;;;;;;4.40;4.20;;;;;27.77;40.54;99556.34;6312652;20;2750276;-61
2022/05/21 11:21:17;;;;;;;;;5.67;5.00;;;;;27.66;41.54;99537.66;6290143;20;2747141;-60
2022/05/21 11:23:57;;;;;;;;;4.80;3.80;;;;;27.69;39.35;99542.75;6342708;20;2756617;-63
2022/05/21 11:27:02;;;;;;;;;4.00;4.00;;;;;27.27;38.73;99544.78;6312066;20;2746094;-62
2022/05/21 11:30:06;;;;;;;;;5.33;4.00;;;;;27.90;36.22;99544.53;6287429;20;2745126;-62
2022/05/21 11:38:42;;;;;;;;;4.00;3.33;;;;;27.86;36.56;99553.44;6318481;20;2741974;-58
2022/05/21 11:41:30;;;;;;;;;4.00;4.00;;;;;27.57;35.08;99544.47;6316318;20;2752319;-60
2022/05/21 11:47:05;;;;;;;;;3.00;3.00;;;;;27.83;36.22;99549.19;6313405;20;2741962;-61
2022/05/21 11:49:58;;;;;;;;;1.00;1.00;;;;;28.19;35.83;99559.84;6312052;20;2722150;-61
2022/05/21 11:52:27;;;;;;;;;3.40;3.00;;;;;27.78;36.51;99555.31;6344136;20;2744109;-61
2022/05/21 11:55:09;;;;;;;;;6.20;4.00;;;;;27.42;36.69;99550.13;6311006;20;2743022;-59
2022/05/21 11:57:48;;;;;;;;;4.80;4.60;;;;;27.09;37.99;99563.75;6312917;20;2748622;-59
2022/05/21 12:00:18;;;;;;;;;5.00;3.20;;;;;26.75;38.05;99562.69;6310505;20;2752401;-59
2022/05/21 12:02:53;;;;;;;;;7.00;6.00;;;;;27.07;38.02;99568.63;6313443;20;2732671;-60
2022/05/21 12:05:37;;;;;;;;;3.60;2.80;;;;;27.60;37.57;99557.81;6343340;20;2735680;-59
2022/05/21 12:08:17;;;;;;;;;4.00;4.00;;;;;27.45;37.86;99573.69;6310810;20;2746103;-57
2022/05/21 12:11:40;;;;;;;;;6.00;4.33;;;;;27.35;37.58;99552.84;6287233;20;2754456;-59
2022/05/21 12:14:27;;;;;;;;;5.33;5.00;;;;;27.40;37.55;99557.75;6318630;20;2748245;-59
2022/05/21 12:17:02;;;;;;;;;4.60;4.60;;;;;27.94;37.43;99547.75;6339160;20;2747539;-58
2022/05/21 12:20:06;;;;;;;;;4.00;4.00;;;;;27.99;36.67;99546.03;6310880;20;2748237;-59